createdAt,value
2019-04-23T00:01:07.838Z,8.70
2019-04-23T00:03:35.721Z,9.30
2019-04-23T00:06:07.365Z,7.12
2019-04-23T00:08:36.470Z,7.25
2019-04-23T00:11:10.641Z,8.70
2019-04-23T00:13:37.158Z,9.00
2019-04-23T00:21:13.862Z,8.73
2019-04-23T00:23:47.850Z,9.28
2019-04-23T00:26:24.025Z,8.28
2019-04-23T00:31:24.580Z,8.15
2019-04-23T00:33:52.715Z,8.18
2019-04-23T00:36:25.881Z,10.53
2019-04-23T00:38:49.891Z,7.35
2019-04-23T00:41:25.294Z,9.03
2019-04-23T00:43:54.695Z,8.90
2019-04-23T00:46:22.218Z,6.45
2019-04-23T00:49:03.652Z,9.88
2019-04-23T00:51:27.178Z,9.75
2019-04-23T00:53:51.447Z,8.40
2019-04-23T00:56:40.273Z,6.62
2019-04-23T00:58:58.028Z,7.60
2019-04-23T01:01:27.470Z,8.50
2019-04-23T01:03:53.079Z,8.58
2019-04-23T01:06:24.174Z,9.40
2019-04-23T01:08:55.208Z,9.28
2019-04-23T01:11:39.344Z,10.55
2019-04-23T01:14:03.986Z,7.12
2019-04-23T01:16:28.272Z,10.18
2019-04-23T01:18:58.198Z,7.45
2019-04-23T01:21:17.915Z,8.88
2019-04-23T01:23:58.155Z,8.38
2019-04-23T01:26:46.104Z,9.65
2019-04-23T01:29:19.970Z,7.15
2019-04-23T01:34:24.692Z,8.48
2019-04-23T01:36:52.160Z,6.70
2019-04-23T01:39:21.090Z,10.32
2019-04-23T01:41:58.368Z,10.78
2019-04-23T01:44:34.196Z,8.10
2019-04-23T01:46:56.140Z,6.78
2019-04-23T01:49:32.783Z,7.55
2019-04-23T01:51:55.666Z,7.80
2019-04-23T01:54:26.126Z,10.05
2019-04-23T01:56:47.197Z,7.28
2019-04-23T01:59:24.547Z,7.05
2019-04-23T02:04:30.055Z,7.10
2019-04-23T02:06:51.743Z,7.35
2019-04-23T02:09:25.283Z,7.75
2019-04-23T02:12:11.577Z,9.25
2019-04-23T02:14:29.566Z,8.98
2019-04-23T02:16:57.862Z,8.70
2019-04-23T02:21:57.655Z,8.83
2019-04-23T02:24:35.989Z,6.42
2019-04-23T02:27:02.564Z,8.50
2019-04-23T02:29:55.991Z,6.50
2019-04-23T02:37:37.533Z,7.58
2019-04-23T02:47:25.487Z,9.63
2019-04-23T02:57:11.841Z,7.10
2019-04-23T03:04:50.664Z,7.37
2019-04-23T03:07:27.396Z,6.55
2019-04-23T03:12:27.079Z,6.22
2019-04-23T03:15:15.066Z,9.60
2019-04-23T03:17:53.102Z,8.20
2019-04-23T03:27:56.118Z,9.55
2019-04-23T03:32:31.894Z,6.40
2019-04-23T03:38:30.057Z,7.05
2019-04-23T03:40:46.462Z,7.47
2019-04-23T03:43:26.190Z,8.58
2019-04-23T03:46:03.569Z,6.70
2019-04-23T03:48:27.021Z,6.60
2019-04-23T03:50:39.071Z,8.75
2019-04-23T03:53:29.920Z,6.25
2019-04-23T03:55:54.642Z,9.00
2019-04-23T03:58:30.600Z,8.50
2019-04-23T04:03:42.212Z,7.67
2019-04-23T04:05:56.566Z,7.28
2019-04-23T04:11:11.331Z,7.28
2019-04-23T04:13:31.081Z,7.70
2019-04-23T04:21:02.869Z,9.55
2019-04-23T04:23:41.076Z,8.08
2019-04-23T04:43:31.613Z,7.40
2019-04-23T04:51:00.148Z,7.25
2019-04-23T04:56:07.847Z,8.18
2019-04-23T04:58:36.077Z,7.53
2019-04-23T05:01:13.993Z,9.63
2019-04-23T05:03:28.447Z,7.70
2019-04-23T05:08:37.246Z,6.20
2019-04-23T05:11:24.182Z,7.47
2019-04-23T05:13:41.178Z,7.08
2019-04-23T05:16:00.502Z,6.08
2019-04-23T05:18:38.616Z,8.48
2019-04-23T05:23:54.338Z,7.28
2019-04-23T05:26:13.605Z,6.42
2019-04-23T05:28:52.350Z,7.03
2019-04-23T05:31:14.093Z,9.33
2019-04-23T05:33:39.067Z,6.62
2019-04-23T05:36:20.105Z,8.35
2019-04-23T05:39:01.718Z,10.78
2019-04-23T05:41:19.925Z,7.40
2019-04-23T05:43:40.880Z,6.40
2019-04-23T05:46:23.670Z,9.15
2019-04-23T05:48:46.968Z,11.15
2019-04-23T05:53:47.424Z,9.73
2019-04-23T05:56:15.622Z,6.62
2019-04-23T06:01:47.784Z,7.37
2019-04-23T06:03:56.910Z,11.08
2019-04-23T06:06:36.145Z,8.08
2019-04-23T06:14:06.835Z,7.45
2019-04-23T06:16:30.938Z,6.80
2019-04-23T06:19:01.594Z,8.70
2019-04-23T06:21:38.329Z,8.15
2019-04-23T06:24:07.557Z,7.83
2019-04-23T06:29:02.389Z,8.75
2019-04-23T06:31:36.690Z,8.05
2019-04-23T06:34:03.812Z,6.70
2019-04-23T06:38:57.004Z,8.80
2019-04-23T06:41:30.606Z,8.03
2019-04-23T06:44:15.969Z,9.30
2019-04-23T06:46:44.647Z,7.28
2019-04-23T06:49:10.894Z,10.98
2019-04-23T06:51:46.500Z,12.82
2019-04-23T06:54:04.425Z,10.08
2019-04-23T06:56:43.338Z,8.80
2019-04-23T06:59:07.684Z,11.83
2019-04-23T07:01:51.608Z,9.03
2019-04-23T07:04:15.025Z,7.42
2019-04-23T07:06:38.504Z,8.05
2019-04-23T07:11:51.256Z,10.95
2019-04-23T07:14:26.197Z,8.80
2019-04-23T07:16:41.225Z,12.75
2019-04-23T07:19:16.586Z,11.75
2019-04-23T07:21:35.570Z,12.00
2019-04-23T07:24:10.582Z,18.52
2019-04-23T07:26:40.448Z,13.48
2019-04-23T07:29:09.030Z,12.20
2019-04-23T07:31:40.929Z,9.35
2019-04-23T07:34:08.448Z,10.08
2019-04-23T07:36:42.399Z,9.68
2019-04-23T07:39:20.038Z,11.15
2019-04-23T07:44:43.795Z,9.05
2019-04-23T07:47:15.791Z,9.43
2019-04-23T07:49:43.813Z,8.63
2019-04-23T07:52:24.277Z,8.15
2019-04-23T07:54:42.525Z,8.85
2019-04-23T07:57:17.270Z,7.33
2019-04-23T07:59:44.215Z,7.85
2019-04-23T08:02:14.185Z,8.70
2019-04-23T08:04:53.041Z,8.33
2019-04-23T08:07:10.959Z,9.65
2019-04-23T08:09:43.042Z,8.08
2019-04-23T08:12:15.628Z,10.08
2019-04-23T08:14:40.391Z,9.45
2019-04-23T08:17:07.352Z,8.05
2019-04-23T08:19:51.341Z,9.33
2019-04-23T08:22:22.204Z,8.63
2019-04-23T08:27:21.488Z,11.10
2019-04-23T08:29:48.431Z,8.53
2019-04-23T08:32:33.258Z,9.08
2019-04-23T08:42:36.410Z,6.78
2019-04-23T08:45:03.470Z,7.08
2019-04-23T08:47:31.646Z,8.68
2019-04-23T08:50:04.265Z,8.45
2019-04-23T08:52:31.245Z,6.78
2019-04-23T08:55:22.829Z,8.70
2019-04-23T08:57:31.941Z,10.70
2019-04-23T09:00:07.586Z,9.20
2019-04-23T09:05:08.833Z,7.72
2019-04-23T09:07:38.581Z,7.28
2019-04-23T09:10:15.394Z,9.45
2019-04-23T09:15:18.671Z,7.87
2019-04-23T09:17:40.402Z,7.67
2019-04-23T09:20:18.526Z,10.63
2019-04-23T09:22:38.879Z,9.10
2019-04-23T09:25:12.043Z,10.45
2019-04-23T09:27:39.690Z,9.15
2019-04-23T09:30:14.757Z,12.93
2019-04-23T09:32:43.398Z,7.97
2019-04-23T09:35:27.415Z,9.58
2019-04-23T09:43:31.477Z,9.45
2019-04-23T09:46:17.921Z,13.45
2019-04-23T09:48:47.043Z,11.25
2019-04-23T09:51:10.164Z,13.18
2019-04-23T09:53:57.700Z,14.05
2019-04-23T09:56:05.076Z,8.90
2019-04-23T09:58:34.449Z,10.20
2019-04-23T10:01:23.777Z,13.18
2019-04-23T10:03:39.003Z,7.65
2019-04-23T10:06:02.983Z,9.50
2019-04-23T10:08:31.270Z,9.63
2019-04-23T10:10:53.403Z,11.03
2019-04-23T10:13:24.071Z,9.78
2019-04-23T10:15:53.909Z,9.38
2019-04-23T10:18:24.423Z,10.08
2019-04-23T10:20:54.270Z,11.60
2019-04-23T10:23:23.259Z,11.20
2019-04-23T10:25:52.284Z,11.15
2019-04-23T10:28:26.556Z,9.50
2019-04-23T10:30:56.570Z,10.60
2019-04-23T10:33:25.546Z,10.13
2019-04-23T10:36:02.215Z,8.88
2019-04-23T10:38:26.308Z,9.55
2019-04-23T10:40:56.103Z,11.10
2019-04-23T10:43:25.093Z,11.88
2019-04-23T10:46:15.356Z,8.20
2019-04-23T10:49:11.112Z,10.93
2019-04-23T10:51:37.041Z,6.62
2019-04-23T10:54:16.522Z,12.15
2019-04-23T10:56:43.232Z,9.05
2019-04-23T10:59:03.296Z,12.20
2019-04-23T11:01:35.791Z,12.30
2019-04-23T11:04:21.433Z,8.30
2019-04-23T11:09:38.608Z,14.05
2019-04-23T11:12:04.017Z,9.53
2019-04-23T11:14:31.089Z,8.68
2019-04-23T11:17:04.598Z,9.93
2019-04-23T11:19:44.270Z,12.68
2019-04-23T11:22:20.749Z,12.28
2019-04-23T11:27:10.335Z,14.43
2019-04-23T11:32:23.651Z,13.43
2019-04-23T11:34:57.364Z,12.68
2019-04-23T11:37:07.358Z,9.70
2019-04-23T11:39:39.603Z,12.15
2019-04-23T11:47:14.283Z,10.75
2019-04-23T11:52:29.053Z,13.80
2019-04-23T11:54:36.016Z,13.95
2019-04-23T12:00:05.394Z,13.75
2019-04-23T12:02:23.331Z,10.50
2019-04-23T12:07:22.849Z,15.30
2019-04-23T12:09:53.699Z,12.07
2019-04-23T12:12:28.164Z,13.60
2019-04-23T12:14:50.975Z,15.68
2019-04-23T12:17:48.944Z,12.93
2019-04-23T12:20:02.885Z,13.98
2019-04-23T12:27:31.317Z,13.70
2019-04-23T12:32:49.735Z,11.12
2019-04-23T12:35:25.659Z,13.53
2019-04-23T12:40:19.898Z,11.43
2019-04-23T12:42:59.055Z,11.95
2019-04-23T12:45:25.099Z,10.65
2019-04-23T12:52:46.861Z,12.58
2019-04-23T12:55:23.419Z,12.47
2019-04-23T12:57:47.358Z,13.55
2019-04-23T13:00:20.928Z,13.03
2019-04-23T13:05:15.822Z,9.43
2019-04-23T13:10:21.054Z,13.75
2019-04-23T13:13:01.449Z,12.78
2019-04-23T13:20:23.666Z,13.03
2019-04-23T13:22:57.689Z,10.82
2019-04-23T13:25:39.842Z,12.68
2019-04-23T13:28:06.866Z,11.75
2019-04-23T13:38:15.787Z,14.45
2019-04-23T13:40:50.554Z,12.18
2019-04-23T13:43:24.321Z,13.03
2019-04-23T13:45:59.906Z,14.68
2019-04-23T13:48:16.691Z,12.33
2019-04-23T13:55:44.347Z,12.40
2019-04-23T13:58:23.547Z,12.00
2019-04-23T14:01:00.930Z,12.20
2019-04-23T14:03:30.359Z,12.55
2019-04-23T14:06:18.128Z,12.28
2019-04-23T14:08:51.904Z,10.78
2019-04-23T14:11:19.446Z,14.43
2019-04-23T14:13:49.636Z,12.25
2019-04-23T14:16:20.475Z,12.07
2019-04-23T14:24:03.501Z,11.83
2019-04-23T14:26:25.395Z,13.48
2019-04-23T14:28:43.042Z,14.35
2019-04-23T14:31:13.434Z,11.53
2019-04-23T14:33:53.125Z,13.90
2019-04-23T14:36:14.047Z,15.88
2019-04-23T14:38:44.463Z,14.35
2019-04-23T14:43:49.469Z,13.80
2019-04-23T14:46:35.337Z,15.20
2019-04-23T14:48:53.888Z,14.55
2019-04-23T14:51:30.871Z,12.07
2019-04-23T14:58:57.554Z,14.80
2019-04-23T15:01:34.643Z,15.10
2019-04-23T15:08:57.392Z,16.37
2019-04-23T15:13:51.870Z,15.05
2019-04-23T15:16:22.236Z,13.70
2019-04-23T15:19:10.933Z,13.28
2019-04-23T15:21:49.503Z,12.33
2019-04-23T15:24:14.020Z,11.97
2019-04-23T15:28:43.100Z,13.68
2019-04-23T15:36:58.044Z,12.23
2019-04-23T15:39:19.511Z,11.45
2019-04-23T15:41:45.091Z,11.43
2019-04-23T15:44:08.783Z,12.47
2019-04-23T15:49:22.995Z,14.45
2019-04-23T15:54:13.828Z,12.82
2019-04-23T15:56:40.912Z,11.53
2019-04-23T15:59:21.049Z,13.98
2019-04-23T16:03:43.989Z,17.40
2019-04-23T16:06:14.195Z,12.23
2019-04-23T16:16:45.261Z,15.85
2019-04-23T16:19:23.648Z,14.60
2019-04-23T16:24:21.965Z,12.05
2019-04-23T16:26:49.849Z,11.40
2019-04-23T16:34:20.938Z,12.58
2019-04-23T16:36:48.599Z,14.78
2019-04-23T16:41:54.885Z,12.85
2019-04-23T16:44:24.179Z,18.75
2019-04-23T16:46:54.165Z,10.70
2019-04-23T16:49:21.811Z,13.48
2019-04-23T16:51:47.054Z,12.80
2019-04-23T16:54:26.747Z,15.30
2019-04-23T17:02:03.438Z,15.08
2019-04-23T17:04:24.382Z,13.65
2019-04-23T17:06:53.411Z,12.43
2019-04-23T17:09:34.123Z,15.93
2019-04-23T17:12:03.676Z,13.50
2019-04-23T17:16:49.949Z,14.90
2019-04-23T17:19:40.917Z,13.85
2019-04-23T17:21:59.759Z,14.95
2019-04-23T17:24:23.332Z,15.30
2019-04-23T17:27:00.848Z,12.45
2019-04-23T17:29:28.739Z,16.90
2019-04-23T17:32:03.507Z,13.28
2019-04-23T17:34:35.045Z,17.27
2019-04-23T17:37:19.506Z,15.03
2019-04-23T17:39:55.370Z,12.90
2019-04-23T17:42:19.621Z,15.60
2019-04-23T17:47:28.553Z,13.40
2019-04-23T17:52:26.229Z,13.90
2019-04-23T17:54:54.763Z,18.00
2019-04-23T18:02:51.696Z,17.92
2019-04-23T18:05:02.394Z,16.65
2019-04-23T18:07:37.811Z,14.40
2019-04-23T18:10:13.279Z,15.32
2019-04-23T18:12:39.080Z,12.23
2019-04-23T18:15:02.147Z,14.85
2019-04-23T18:20:13.397Z,15.60
2019-04-23T18:22:48.777Z,11.43
2019-04-23T18:27:46.986Z,14.43
2019-04-23T18:30:21.384Z,14.18
2019-04-23T18:33:31.997Z,13.05
2019-04-23T18:38:13.649Z,13.25
2019-04-23T18:40:21.324Z,10.98
2019-04-23T18:42:53.927Z,14.93
2019-04-23T18:45:31.574Z,15.38
2019-04-23T18:48:19.755Z,13.75
2019-04-23T18:50:43.238Z,14.73
2019-04-23T18:55:45.142Z,14.50
2019-04-23T18:57:57.345Z,16.12
2019-04-23T19:00:41.449Z,13.70
2019-04-23T19:03:21.838Z,14.25
2019-04-23T19:05:52.478Z,13.08
2019-04-23T19:08:44.417Z,14.13
2019-04-23T19:10:56.107Z,14.15
2019-04-23T19:15:53.117Z,15.93
2019-04-23T19:18:35.998Z,15.72
2019-04-23T19:26:07.930Z,13.55
2019-04-23T19:31:22.091Z,14.20
2019-04-23T19:33:55.298Z,16.40
2019-04-23T19:36:17.232Z,15.08
2019-04-23T19:38:56.175Z,15.85
2019-04-23T19:41:21.285Z,13.90
2019-04-23T19:43:55.646Z,16.10
2019-04-23T20:01:23.739Z,14.35
2019-04-23T20:06:46.215Z,13.50
2019-04-23T20:09:10.877Z,14.33
2019-04-23T20:11:30.238Z,15.72
2019-04-23T20:13:57.491Z,17.62
2019-04-23T20:16:32.217Z,15.45
2019-04-23T20:21:25.754Z,13.30
2019-04-23T20:24:04.100Z,18.62
2019-04-23T20:26:37.429Z,17.48
2019-04-23T20:54:42.393Z,16.87
2019-04-23T20:57:24.636Z,14.90
2019-04-23T20:59:57.081Z,18.80
2019-04-23T21:02:32.750Z,17.82
2019-04-23T21:04:57.131Z,15.20
2019-04-23T21:07:33.429Z,15.58
2019-04-23T21:10:11.170Z,16.37
2019-04-23T21:12:45.488Z,15.30
2019-04-23T21:15:05.344Z,13.83
2019-04-23T21:17:38.081Z,14.47
2019-04-23T21:20:10.186Z,16.20
2019-04-23T21:24:56.250Z,15.72
2019-04-23T21:27:38.637Z,14.50
2019-04-23T21:32:41.027Z,17.45
2019-04-23T21:40:42.447Z,18.20
2019-04-23T21:43:09.360Z,16.37
2019-04-23T21:46:02.440Z,16.02
2019-04-23T21:48:09.676Z,20.92
2019-04-23T21:50:47.345Z,13.60
2019-04-23T21:53:06.738Z,15.83
2019-04-23T21:55:48.728Z,16.25
2019-04-23T22:00:54.980Z,15.95
2019-04-23T22:03:19.543Z,15.08
2019-04-23T22:05:49.659Z,17.92
2019-04-23T22:08:10.651Z,16.62
2019-04-23T22:13:19.914Z,13.70
2019-04-23T22:15:56.126Z,18.70
2019-04-23T22:18:14.590Z,18.07
2019-04-23T22:20:51.325Z,17.32
2019-04-23T22:25:56.707Z,16.85
2019-04-23T22:28:21.871Z,14.90
2019-04-23T22:31:03.774Z,19.15
2019-04-23T22:33:21.620Z,18.40
2019-04-23T22:35:55.575Z,19.87
2019-04-23T22:38:20.413Z,19.73
2019-04-23T22:40:49.774Z,16.85
2019-04-23T22:48:23.725Z,22.77
2019-04-23T22:51:11.016Z,18.37
2019-04-23T22:53:13.970Z,20.10
2019-04-23T22:55:57.317Z,21.70
2019-04-23T22:58:27.459Z,18.55
2019-04-23T23:03:42.248Z,20.55
2019-04-23T23:08:57.477Z,19.40
2019-04-23T23:11:11.285Z,19.30
2019-04-23T23:14:07.130Z,20.02
2019-04-23T23:16:15.095Z,19.15
2019-04-23T23:18:53.786Z,17.35
2019-04-23T23:21:16.359Z,19.82
2019-04-23T23:23:46.103Z,18.92
2019-04-23T23:26:15.924Z,19.77
2019-04-23T23:28:46.833Z,19.75
2019-04-23T23:31:29.515Z,17.40
2019-04-23T23:33:49.929Z,19.77
2019-04-23T23:39:01.295Z,18.32
2019-04-23T23:41:24.206Z,17.92
2019-04-23T23:43:54.552Z,18.60
2019-04-23T23:46:27.789Z,23.85
2019-04-23T23:48:49.961Z,21.62
2019-04-23T23:56:15.796Z,21.33
